< < Back
Terminal Aerodrome Forecast


Current Version              Previous Versions:   1  2  3  4  5  6  7  8  9  

Terminal Aerodrome Forecast

370
FTUS42 KTAE 181100
TAFDHN
TAF
KDHN 181120Z 1812/1912 06010G20KT 3SM +RA SCT007 BKN010CB
     FM190200 01010G20KT 3SM -DZ BR BKN007=



Latest METAR

859
SAUS70 KWBC 190100 RRC
MTRDHN
METAR KDHN 190053Z 04015G22KT 10SM FEW013 OVC050 13/11 A3001 RMK AO2
SLP159 T01280106


USA.gov is the U.S. government's official web portal to all federal, state and local government web resources and services.